sensor_id;sensor_type;location;lat;lon;timestamp;pressure;altitude;pressure_sealevel;temperature;humidity
16120;BME280;12670;53.502;10.252;2022-07-06T00:00:02;101815.44;;;16.93;76.33
16120;BME280;12670;53.502;10.252;2022-07-06T00:03:06;101815.28;;;16.96;76.91
16120;BME280;12670;53.502;10.252;2022-07-06T00:06:09;101813.78;;;16.91;77.45
16120;BME280;12670;53.502;10.252;2022-07-06T00:09:11;101824.09;;;16.81;78.64
16120;BME280;12670;53.502;10.252;2022-07-06T00:12:14;101819.69;;;16.80;79.21
16120;BME280;12670;53.502;10.252;2022-07-06T00:15:17;101822.59;;;16.75;79.82
16120;BME280;12670;53.502;10.252;2022-07-06T00:18:21;101828.16;;;16.71;79.94
16120;BME280;12670;53.502;10.252;2022-07-06T00:21:24;101829.09;;;16.70;80.50
16120;BME280;12670;53.502;10.252;2022-07-06T00:24:27;101816.91;;;16.82;80.18
16120;BME280;12670;53.502;10.252;2022-07-06T00:27:29;101818.66;;;16.83;80.14
16120;BME280;12670;53.502;10.252;2022-07-06T00:30:32;101828.50;;;16.82;80.03
16120;BME280;12670;53.502;10.252;2022-07-06T00:33:36;101819.78;;;16.78;80.40
16120;BME280;12670;53.502;10.252;2022-07-06T00:36:38;101820.41;;;16.84;79.99
16120;BME280;12670;53.502;10.252;2022-07-06T00:39:41;101825.91;;;16.81;80.17
16120;BME280;12670;53.502;10.252;2022-07-06T00:42:45;101815.38;;;16.77;79.89
16120;BME280;12670;53.502;10.252;2022-07-06T00:45:48;101816.28;;;16.76;80.10
16120;BME280;12670;53.502;10.252;2022-07-06T00:48:52;101822.13;;;16.85;79.53
16120;BME280;12670;53.502;10.252;2022-07-06T00:51:56;101822.13;;;16.85;80.18
16120;BME280;12670;53.502;10.252;2022-07-06T00:54:59;101818.25;;;16.73;80.43
16120;BME280;12670;53.502;10.252;2022-07-06T00:58:04;101816.28;;;16.76;80.77
16120;BME280;12670;53.502;10.252;2022-07-06T01:01:06;101813.00;;;16.70;80.91
16120;BME280;12670;53.502;10.252;2022-07-06T01:04:11;101816.22;;;16.59;81.46
16120;BME280;12670;53.502;10.252;2022-07-06T01:07:13;101816.22;;;16.59;81.81
16120;BME280;12670;53.502;10.252;2022-07-06T01:10:17;101824.91;;;16.64;81.94
16120;BME280;12670;53.502;10.252;2022-07-06T01:13:20;101826.03;;;16.60;82.29
16120;BME280;12670;53.502;10.252;2022-07-06T01:16:23;101825.84;;;16.63;81.55
16120;BME280;12670;53.502;10.252;2022-07-06T01:19:27;101821.59;;;16.59;82.12
16120;BME280;12670;53.502;10.252;2022-07-06T01:22:31;101813.94;;;16.51;82.32
16120;BME280;12670;53.502;10.252;2022-07-06T01:25:34;101816.22;;;16.59;81.82
16120;BME280;12670;53.502;10.252;2022-07-06T01:28:37;101818.28;;;16.54;82.84
16120;BME280;12670;53.502;10.252;2022-07-06T01:31:45;101805.44;;;16.61;82.04
16120;BME280;12670;53.502;10.252;2022-07-06T01:34:49;101816.84;;;16.47;82.41
16120;BME280;12670;53.502;10.252;2022-07-06T01:37:53;101811.59;;;16.63;82.02
16120;BME280;12670;53.502;10.252;2022-07-06T01:40:55;101808.03;;;16.62;81.86
16120;BME280;12670;53.502;10.252;2022-07-06T01:43:58;101806.16;;;16.64;81.54
16120;BME280;12670;53.502;10.252;2022-07-06T01:47:00;101807.41;;;16.57;81.63
16120;BME280;12670;53.502;10.252;2022-07-06T01:50:05;101796.56;;;16.60;82.21
16120;BME280;12670;53.502;10.252;2022-07-06T01:53:10;101805.22;;;16.65;81.23
16120;BME280;12670;53.502;10.252;2022-07-06T01:56:13;101807.91;;;16.65;81.92
16120;BME280;12670;53.502;10.252;2022-07-06T01:59:15;101805.22;;;16.65;81.61
16120;BME280;12670;53.502;10.252;2022-07-06T02:02:18;101805.38;;;16.62;81.43
16120;BME280;12670;53.502;10.252;2022-07-06T02:05:21;101808.28;;;16.58;81.85
16120;BME280;12670;53.502;10.252;2022-07-06T02:08:24;101807.56;;;16.54;82.53
16120;BME280;12670;53.502;10.252;2022-07-06T02:11:27;101808.44;;;16.55;83.01
16120;BME280;12670;53.502;10.252;2022-07-06T02:14:30;101809.00;;;16.61;82.19
16120;BME280;12670;53.502;10.252;2022-07-06T02:17:33;101812.75;;;16.57;82.03
16120;BME280;12670;53.502;10.252;2022-07-06T02:20:35;101812.06;;;16.53;82.30
16120;BME280;12670;53.502;10.252;2022-07-06T02:23:40;101812.28;;;16.49;82.66
16120;BME280;12670;53.502;10.252;2022-07-06T02:26:42;101814.81;;;16.52;82.67
16120;BME280;12670;53.502;10.252;2022-07-06T02:29:45;101820.09;;;16.53;82.48
16120;BME280;12670;53.502;10.252;2022-07-06T02:32:48;101811.03;;;16.56;82.43
16120;BME280;12670;53.502;10.252;2022-07-06T02:35:50;101813.72;;;16.56;82.04
16120;BME280;12670;53.502;10.252;2022-07-06T02:38:54;101814.34;;;16.61;82.01
16120;BME280;12670;53.502;10.252;2022-07-06T02:41:57;101813.09;;;16.68;82.14
16120;BME280;12670;53.502;10.252;2022-07-06T02:44:59;101815.34;;;16.59;81.88
16120;BME280;12670;53.502;10.252;2022-07-06T02:48:02;101808.44;;;16.55;82.79
16120;BME280;12670;53.502;10.252;2022-07-06T02:51:05;101804.91;;;16.54;82.62
16120;BME280;12670;53.502;10.252;2022-07-06T02:54:09;101803.44;;;16.47;82.90
16120;BME280;12670;53.502;10.252;2022-07-06T02:57:12;101801.50;;;16.50;83.37
16120;BME280;12670;53.502;10.252;2022-07-06T03:00:14;101812.69;;;16.59;82.94
16120;BME280;12670;53.502;10.252;2022-07-06T03:03:17;101813.84;;;16.53;83.32
16120;BME280;12670;53.502;10.252;2022-07-06T03:06:20;101810.88;;;16.59;83.91
16120;BME280;12670;53.502;10.252;2022-07-06T03:09:24;101821.88;;;16.53;83.83
16120;BME280;12670;53.502;10.252;2022-07-06T03:12:27;101817.34;;;16.55;87.13
16120;BME280;12670;53.502;10.252;2022-07-06T03:15:29;101813.81;;;16.36;90.64
16120;BME280;12670;53.502;10.252;2022-07-06T03:18:32;101818.97;;;16.21;92.95
16120;BME280;12670;53.502;10.252;2022-07-06T03:21:35;101818.34;;;16.16;94.46
16120;BME280;12670;53.502;10.252;2022-07-06T03:24:39;101815.59;;;15.99;94.41
16120;BME280;12670;53.502;10.252;2022-07-06T03:27:41;101817.31;;;16.00;94.48
16120;BME280;12670;53.502;10.252;2022-07-06T03:30:44;101821.50;;;16.06;94.64
16120;BME280;12670;53.502;10.252;2022-07-06T03:33:47;101816.44;;;15.99;93.98
16120;BME280;12670;53.502;10.252;2022-07-06T03:36:49;101820.66;;;16.05;95.23
16120;BME280;12670;53.502;10.252;2022-07-06T03:39:53;101820.16;;;15.97;95.38
16120;BME280;12670;53.502;10.252;2022-07-06T03:42:56;101818.28;;;15.99;95.28
16120;BME280;12670;53.502;10.252;2022-07-06T03:45:59;101826.28;;;15.99;94.69
16120;BME280;12670;53.502;10.252;2022-07-06T03:49:01;101818.72;;;15.90;96.08
16120;BME280;12670;53.502;10.252;2022-07-06T03:52:05;101814.28;;;15.89;95.80
16120;BME280;12670;53.502;10.252;2022-07-06T03:55:10;101818.06;;;15.85;96.45
16120;BME280;12670;53.502;10.252;2022-07-06T03:58:13;101815.72;;;15.77;97.08
16120;BME280;12670;53.502;10.252;2022-07-06T04:01:16;101814.56;;;15.83;96.78
16120;BME280;12670;53.502;10.252;2022-07-06T04:04:19;101812.72;;;15.85;97.19
16120;BME280;12670;53.502;10.252;2022-07-06T04:07:21;101825.59;;;15.95;96.86
16120;BME280;12670;53.502;10.252;2022-07-06T04:10:25;101816.44;;;15.99;95.36
16120;BME280;12670;53.502;10.252;2022-07-06T04:13:28;101820.94;;;15.99;95.65
16120;BME280;12670;53.502;10.252;2022-07-06T04:16:31;101820.94;;;15.99;95.70
16120;BME280;12670;53.502;10.252;2022-07-06T04:19:33;101821.38;;;16.09;96.40
16120;BME280;12670;53.502;10.252;2022-07-06T04:22:37;101824.41;;;16.20;95.61
16120;BME280;12670;53.502;10.252;2022-07-06T04:25:41;101828.63;;;16.07;94.71
16120;BME280;12670;53.502;10.252;2022-07-06T04:28:44;101829.34;;;16.10;94.03
16120;BME280;12670;53.502;10.252;2022-07-06T04:31:46;101832.47;;;16.01;94.26
16120;BME280;12670;53.502;10.252;2022-07-06T04:34:49;101830.56;;;16.03;94.43
16120;BME280;12670;53.502;10.252;2022-07-06T04:37:52;101838.44;;;16.06;95.05
16120;BME280;12670;53.502;10.252;2022-07-06T04:40:56;101837.56;;;15.87;95.95
16120;BME280;12670;53.502;10.252;2022-07-06T04:43:58;101843.19;;;16.01;96.30
16120;BME280;12670;53.502;10.252;2022-07-06T04:47:01;101825.88;;;16.08;94.79
16120;BME280;12670;53.502;10.252;2022-07-06T04:50:05;101832.66;;;16.15;94.87
16120;BME280;12670;53.502;10.252;2022-07-06T04:53:07;101834.97;;;16.23;95.71
16120;BME280;12670;53.502;10.252;2022-07-06T04:56:11;101826.16;;;16.21;96.24
16120;BME280;12670;53.502;10.252;2022-07-06T04:59:14;101821.38;;;16.27;93.87
16120;BME280;12670;53.502;10.252;2022-07-06T05:02:17;101824.53;;;16.36;94.25
16120;BME280;12670;53.502;10.252;2022-07-06T05:05:19;101827.19;;;16.36;94.87
16120;BME280;12670;53.502;10.252;2022-07-06T05:08:22;101834.66;;;16.48;94.74
16120;BME280;12670;53.502;10.252;2022-07-06T05:11:27;101823.94;;;16.48;92.83
16120;BME280;12670;53.502;10.252;2022-07-06T05:14:30;101836.09;;;16.55;91.83
16120;BME280;12670;53.502;10.252;2022-07-06T05:17:33;101840.81;;;16.50;92.02
16120;BME280;12670;53.502;10.252;2022-07-06T05:20:35;101841.28;;;16.58;91.61
16120;BME280;12670;53.502;10.252;2022-07-06T05:23:38;101843.22;;;16.37;92.06
16120;BME280;12670;53.502;10.252;2022-07-06T05:26:43;101844.47;;;16.47;92.43
16120;BME280;12670;53.502;10.252;2022-07-06T05:29:45;101831.75;;;16.52;91.31
16120;BME280;12670;53.502;10.252;2022-07-06T05:32:48;101824.50;;;16.55;92.60
16120;BME280;12670;53.502;10.252;2022-07-06T05:35:51;101829.88;;;16.55;92.41
16120;BME280;12670;53.502;10.252;2022-07-06T05:38:54;101832.03;;;16.65;92.30
16120;BME280;12670;53.502;10.252;2022-07-06T05:41:58;101838.56;;;16.60;91.41
16120;BME280;12670;53.502;10.252;2022-07-06T05:45:00;101839.94;;;16.49;90.57
16120;BME280;12670;53.502;10.252;2022-07-06T05:48:05;101837.44;;;16.64;90.64
16120;BME280;12670;53.502;10.252;2022-07-06T05:51:25;101838.25;;;16.66;89.91
16120;BME280;12670;53.502;10.252;2022-07-06T05:54:28;101842.84;;;16.45;90.32
16120;BME280;12670;53.502;10.252;2022-07-06T05:57:32;101844.44;;;16.49;89.50
16120;BME280;12670;53.502;10.252;2022-07-06T06:00:35;101833.91;;;16.63;89.37
16120;BME280;12670;53.502;10.252;2022-07-06T06:03:37;101830.72;;;16.74;88.93
16120;BME280;12670;53.502;10.252;2022-07-06T06:06:40;101829.34;;;16.65;89.75
16120;BME280;12670;53.502;10.252;2022-07-06T06:09:43;101837.19;;;16.87;89.42
16120;BME280;12670;53.502;10.252;2022-07-06T06:12:47;101840.91;;;16.85;89.12
16120;BME280;12670;53.502;10.252;2022-07-06T06:15:50;101846.34;;;16.64;89.23
16120;BME280;12670;53.502;10.252;2022-07-06T06:18:53;101851.63;;;16.85;89.07
16120;BME280;12670;53.502;10.252;2022-07-06T06:21:55;101853.13;;;16.90;88.40
16120;BME280;12670;53.502;10.252;2022-07-06T06:24:58;101848.63;;;16.91;87.45
16120;BME280;12670;53.502;10.252;2022-07-06T06:28:03;101855.88;;;16.70;86.86
16120;BME280;12670;53.502;10.252;2022-07-06T06:31:05;101855.56;;;16.77;86.73
16120;BME280;12670;53.502;10.252;2022-07-06T06:34:08;101862.47;;;16.82;87.90
16120;BME280;12670;53.502;10.252;2022-07-06T06:37:11;101863.44;;;16.81;88.80
16120;BME280;12670;53.502;10.252;2022-07-06T06:40:13;101863.91;;;16.71;90.71
16120;BME280;12670;53.502;10.252;2022-07-06T06:43:17;101870.06;;;16.91;90.39
16120;BME280;12670;53.502;10.252;2022-07-06T06:46:20;101871.63;;;16.77;91.84
16120;BME280;12670;53.502;10.252;2022-07-06T06:49:23;101866.69;;;16.68;91.73
16120;BME280;12670;53.502;10.252;2022-07-06T06:52:25;101864.72;;;16.91;92.54
16120;BME280;12670;53.502;10.252;2022-07-06T06:55:43;101866.91;;;17.00;91.72
16120;BME280;12670;53.502;10.252;2022-07-06T06:58:47;101862.91;;;17.09;90.20
16120;BME280;12670;53.502;10.252;2022-07-06T07:02:10;101864.88;;;17.05;90.32
16120;BME280;12670;53.502;10.252;2022-07-06T07:05:13;101861.41;;;17.20;89.94
16120;BME280;12670;53.502;10.252;2022-07-06T07:08:15;101872.03;;;17.39;89.19
16120;BME280;12670;53.502;10.252;2022-07-06T07:11:18;101867.69;;;17.54;88.84
16120;BME280;12670;53.502;10.252;2022-07-06T07:14:22;101869.78;;;17.65;87.02
16120;BME280;12670;53.502;10.252;2022-07-06T07:17:25;101876.66;;;17.70;87.54
16120;BME280;12670;53.502;10.252;2022-07-06T07:20:27;101873.59;;;17.61;87.19
16120;BME280;12670;53.502;10.252;2022-07-06T07:23:31;101873.84;;;17.73;86.42
16120;BME280;12670;53.502;10.252;2022-07-06T07:26:33;101880.41;;;17.50;85.28
16120;BME280;12670;53.502;10.252;2022-07-06T07:29:37;101877.16;;;17.61;84.41
16120;BME280;12670;53.502;10.252;2022-07-06T07:32:40;101878.25;;;17.74;83.45
16120;BME280;12670;53.502;10.252;2022-07-06T07:35:43;101887.72;;;17.64;80.02
16120;BME280;12670;53.502;10.252;2022-07-06T07:38:45;101882.31;;;17.48;79.17
16120;BME280;12670;53.502;10.252;2022-07-06T07:41:48;101891.84;;;17.54;79.76
16120;BME280;12670;53.502;10.252;2022-07-06T07:44:53;101886.63;;;17.51;80.36
16120;BME280;12670;53.502;10.252;2022-07-06T07:47:55;101887.75;;;17.97;81.29
16120;BME280;12670;53.502;10.252;2022-07-06T07:50:58;101886.50;;;18.20;79.09
16120;BME280;12670;53.502;10.252;2022-07-06T07:54:01;101886.66;;;18.17;78.02
16120;BME280;12670;53.502;10.252;2022-07-06T07:57:04;101893.25;;;18.27;78.39
16120;BME280;12670;53.502;10.252;2022-07-06T08:00:09;101885.94;;;17.98;77.63
16120;BME280;12670;53.502;10.252;2022-07-06T08:03:12;101888.63;;;17.98;78.13
16120;BME280;12670;53.502;10.252;2022-07-06T08:06:15;101886.31;;;17.74;77.14
16120;BME280;12670;53.502;10.252;2022-07-06T08:09:17;101891.81;;;17.89;77.10
16120;BME280;12670;53.502;10.252;2022-07-06T08:12:20;101905.25;;;17.89;76.16
16120;BME280;12670;53.502;10.252;2022-07-06T08:15:24;101907.25;;;18.01;77.19
16120;BME280;12670;53.502;10.252;2022-07-06T08:18:27;101900.44;;;17.78;76.86
16120;BME280;12670;53.502;10.252;2022-07-06T08:21:31;101891.19;;;17.66;74.89
16120;BME280;12670;53.502;10.252;2022-07-06T08:24:34;101888.94;;;17.92;76.70
16120;BME280;12670;53.502;10.252;2022-07-06T08:27:36;101897.91;;;18.08;76.68
16120;BME280;12670;53.502;10.252;2022-07-06T08:30:40;101891.16;;;18.01;74.87
16120;BME280;12670;53.502;10.252;2022-07-06T08:33:43;101896.38;;;17.87;74.61
16120;BME280;12670;53.502;10.252;2022-07-06T08:36:46;101899.31;;;17.82;71.98
16120;BME280;12670;53.502;10.252;2022-07-06T08:39:48;101899.25;;;17.83;72.81
16120;BME280;12670;53.502;10.252;2022-07-06T08:42:53;101898.72;;;17.77;73.74
16120;BME280;12670;53.502;10.252;2022-07-06T08:45:58;101901.66;;;17.88;74.77
16120;BME280;12670;53.502;10.252;2022-07-06T08:49:01;101900.78;;;17.88;74.11
16120;BME280;12670;53.502;10.252;2022-07-06T08:52:04;101898.88;;;17.74;74.61
16120;BME280;12670;53.502;10.252;2022-07-06T08:55:08;101900.78;;;17.70;73.38
16120;BME280;12670;53.502;10.252;2022-07-06T08:58:11;101902.56;;;17.89;75.24
16120;BME280;12670;53.502;10.252;2022-07-06T09:01:16;101902.63;;;17.70;74.45
16120;BME280;12670;53.502;10.252;2022-07-06T09:04:22;101909.28;;;17.63;78.00
16120;BME280;12670;53.502;10.252;2022-07-06T09:07:27;101903.69;;;17.50;79.60
16120;BME280;12670;53.502;10.252;2022-07-06T09:10:50;101915.19;;;17.17;81.06
16120;BME280;12670;53.502;10.252;2022-07-06T09:13:52;101908.75;;;17.39;81.50
16120;BME280;12670;53.502;10.252;2022-07-06T09:17:04;101898.22;;;17.51;80.08
16120;BME280;12670;53.502;10.252;2022-07-06T09:20:11;101910.38;;;17.41;80.02
16120;BME280;12670;53.502;10.252;2022-07-06T09:23:15;101916.16;;;17.33;78.03
16120;BME280;12670;53.502;10.252;2022-07-06T09:26:19;101918.53;;;17.74;78.92
16120;BME280;12670;53.502;10.252;2022-07-06T09:29:26;101927.44;;;17.75;77.18
16120;BME280;12670;53.502;10.252;2022-07-06T09:32:31;101934.94;;;17.85;77.91
16120;BME280;12670;53.502;10.252;2022-07-06T09:35:36;101925.56;;;17.77;79.78
16120;BME280;12670;53.502;10.252;2022-07-06T09:38:40;101931.28;;;17.69;79.25
16120;BME280;12670;53.502;10.252;2022-07-06T09:41:42;101929.09;;;17.60;80.52
16120;BME280;12670;53.502;10.252;2022-07-06T09:44:47;101922.53;;;17.66;80.84
16120;BME280;12670;53.502;10.252;2022-07-06T09:47:51;101923.56;;;17.80;81.78
16120;BME280;12670;53.502;10.252;2022-07-06T09:50:55;101935.25;;;17.79;82.43
16120;BME280;12670;53.502;10.252;2022-07-06T09:53:58;101928.81;;;17.65;82.59
16120;BME280;12670;53.502;10.252;2022-07-06T09:57:01;101936.97;;;17.80;82.62
16120;BME280;12670;53.502;10.252;2022-07-06T10:00:11;101933.88;;;17.88;82.24
16120;BME280;12670;53.502;10.252;2022-07-06T10:03:16;101935.56;;;17.73;82.71
16120;BME280;12670;53.502;10.252;2022-07-06T10:06:19;101930.94;;;17.77;83.47
16120;BME280;12670;53.502;10.252;2022-07-06T10:09:24;101936.25;;;17.94;82.63
16120;BME280;12670;53.502;10.252;2022-07-06T10:12:27;101938.28;;;18.06;82.78
16120;BME280;12670;53.502;10.252;2022-07-06T10:15:30;101937.34;;;18.23;82.79
16120;BME280;12670;53.502;10.252;2022-07-06T10:18:35;101925.78;;;18.70;78.47
16120;BME280;12670;53.502;10.252;2022-07-06T10:21:40;101927.75;;;18.98;80.02
16120;BME280;12670;53.502;10.252;2022-07-06T10:24:43;101924.81;;;19.03;69.69
16120;BME280;12670;53.502;10.252;2022-07-06T10:27:47;101923.13;;;19.16;68.34
16120;BME280;12670;53.502;10.252;2022-07-06T10:30:50;101915.13;;;18.84;67.53
16120;BME280;12670;53.502;10.252;2022-07-06T10:33:55;101918.44;;;18.74;69.13
16120;BME280;12670;53.502;10.252;2022-07-06T10:36:58;101935.25;;;18.77;69.21
16120;BME280;12670;53.502;10.252;2022-07-06T10:40:01;101934.34;;;18.92;71.70
16120;BME280;12670;53.502;10.252;2022-07-06T10:43:21;101926.56;;;18.88;72.95
16120;BME280;12670;53.502;10.252;2022-07-06T10:46:27;101916.59;;;18.74;75.29
16120;BME280;12670;53.502;10.252;2022-07-06T10:49:47;101916.66;;;18.25;76.54
16120;BME280;12670;53.502;10.252;2022-07-06T10:53:00;101914.13;;;18.22;78.36
16120;BME280;12670;53.502;10.252;2022-07-06T10:56:05;101908.75;;;18.22;78.92
16120;BME280;12670;53.502;10.252;2022-07-06T10:59:09;101921.75;;;18.14;78.24
16120;BME280;12670;53.502;10.252;2022-07-06T11:02:14;101926.31;;;17.62;75.84
16120;BME280;12670;53.502;10.252;2022-07-06T11:05:42;101924.28;;;17.32;74.26
16120;BME280;12670;53.502;10.252;2022-07-06T11:09:06;101923.56;;;17.28;73.75
16120;BME280;12670;53.502;10.252;2022-07-06T11:12:15;101922.16;;;17.21;73.24
16120;BME280;12670;53.502;10.252;2022-07-06T11:15:46;101920.25;;;17.23;73.25
16120;BME280;12670;53.502;10.252;2022-07-06T11:18:58;101933.03;;;17.18;73.56
16120;BME280;12670;53.502;10.252;2022-07-06T11:22:07;101933.34;;;17.12;74.00
16120;BME280;12670;53.502;10.252;2022-07-06T11:25:10;101948.16;;;17.02;72.63
16120;BME280;12670;53.502;10.252;2022-07-06T11:28:14;101944.66;;;17.00;75.02
16120;BME280;12670;53.502;10.252;2022-07-06T11:31:17;101934.56;;;17.05;77.08
16120;BME280;12670;53.502;10.252;2022-07-06T11:34:22;101944.03;;;16.95;77.68
16120;BME280;12670;53.502;10.252;2022-07-06T11:37:26;101933.88;;;17.01;80.59
16120;BME280;12670;53.502;10.252;2022-07-06T11:40:29;101924.13;;;17.00;80.20
16120;BME280;12670;53.502;10.252;2022-07-06T11:43:31;101917.06;;;16.98;81.20
16120;BME280;12670;53.502;10.252;2022-07-06T11:46:35;101922.00;;;17.07;83.34
16120;BME280;12670;53.502;10.252;2022-07-06T11:49:39;101920.09;;;17.26;82.66
16120;BME280;12670;53.502;10.252;2022-07-06T11:52:44;101906.50;;;17.47;83.28
16120;BME280;12670;53.502;10.252;2022-07-06T11:55:47;101905.78;;;17.95;83.58
16120;BME280;12670;53.502;10.252;2022-07-06T11:58:50;101898.69;;;19.05;84.37
16120;BME280;12670;53.502;10.252;2022-07-06T12:02:00;101898.22;;;20.01;74.98
16120;BME280;12670;53.502;10.252;2022-07-06T12:05:03;101902.13;;;20.10;72.48
16120;BME280;12670;53.502;10.252;2022-07-06T12:08:08;101895.31;;;20.04;70.80
16120;BME280;12670;53.502;10.252;2022-07-06T12:11:16;101896.84;;;21.05;72.56
16120;BME280;12670;53.502;10.252;2022-07-06T12:14:21;101887.25;;;21.26;65.85
16120;BME280;12670;53.502;10.252;2022-07-06T12:17:24;101876.31;;;21.15;62.89
16120;BME280;12670;53.502;10.252;2022-07-06T12:20:27;101881.00;;;20.86;64.51
16120;BME280;12670;53.502;10.252;2022-07-06T12:23:42;101876.69;;;20.84;66.35
16120;BME280;12670;53.502;10.252;2022-07-06T12:26:46;101875.09;;;20.67;65.58
16120;BME280;12670;53.502;10.252;2022-07-06T12:29:49;101860.44;;;21.76;64.96
16120;BME280;12670;53.502;10.252;2022-07-06T12:33:12;101852.97;;;22.42;60.96
16120;BME280;12670;53.502;10.252;2022-07-06T12:36:15;101854.59;;;22.92;60.11
16120;BME280;12670;53.502;10.252;2022-07-06T12:39:20;101853.34;;;23.66;58.29
16120;BME280;12670;53.502;10.252;2022-07-06T12:42:23;101857.19;;;23.29;58.80
16120;BME280;12670;53.502;10.252;2022-07-06T12:45:26;101856.88;;;22.85;52.75
16120;BME280;12670;53.502;10.252;2022-07-06T12:48:29;101839.69;;;23.33;51.99
16120;BME280;12670;53.502;10.252;2022-07-06T12:51:50;101851.59;;;24.22;51.44
16120;BME280;12670;53.502;10.252;2022-07-06T12:54:54;101846.78;;;24.14;49.70
16120;BME280;12670;53.502;10.252;2022-07-06T12:57:58;101846.13;;;24.55;46.39
16120;BME280;12670;53.502;10.252;2022-07-06T13:01:00;101847.63;;;24.48;43.24
16120;BME280;12670;53.502;10.252;2022-07-06T13:04:08;101837.94;;;23.21;47.07
16120;BME280;12670;53.502;10.252;2022-07-06T13:07:17;101835.88;;;22.41;49.08
16120;BME280;12670;53.502;10.252;2022-07-06T13:10:23;101839.50;;;22.29;49.53
16120;BME280;12670;53.502;10.252;2022-07-06T13:13:25;101842.66;;;21.97;51.71
16120;BME280;12670;53.502;10.252;2022-07-06T13:16:29;101841.44;;;22.51;54.99
16120;BME280;12670;53.502;10.252;2022-07-06T13:19:35;101828.13;;;23.31;49.50
16120;BME280;12670;53.502;10.252;2022-07-06T13:22:38;101829.94;;;23.77;48.88
16120;BME280;12670;53.502;10.252;2022-07-06T13:25:42;101828.50;;;22.91;49.16
16120;BME280;12670;53.502;10.252;2022-07-06T13:28:45;101829.66;;;22.76;50.00
16120;BME280;12670;53.502;10.252;2022-07-06T13:31:48;101834.78;;;22.68;49.33
16120;BME280;12670;53.502;10.252;2022-07-06T13:34:50;101840.66;;;22.38;49.01
16120;BME280;12670;53.502;10.252;2022-07-06T13:37:53;101825.81;;;22.06;50.83
16120;BME280;12670;53.502;10.252;2022-07-06T13:40:57;101823.91;;;21.83;51.94
16120;BME280;12670;53.502;10.252;2022-07-06T13:44:00;101829.69;;;21.00;51.67
16120;BME280;12670;53.502;10.252;2022-07-06T13:47:03;101840.47;;;21.00;52.00
16120;BME280;12670;53.502;10.252;2022-07-06T13:50:07;101835.22;;;20.72;52.77
16120;BME280;12670;53.502;10.252;2022-07-06T13:53:09;101820.22;;;21.20;54.37
16120;BME280;12670;53.502;10.252;2022-07-06T13:56:13;101819.25;;;22.34;51.39
16120;BME280;12670;53.502;10.252;2022-07-06T13:59:16;101802.00;;;23.07;49.25
16120;BME280;12670;53.502;10.252;2022-07-06T14:02:18;101812.78;;;23.42;49.29
16120;BME280;12670;53.502;10.252;2022-07-06T14:05:21;101807.72;;;22.92;45.65
16120;BME280;12670;53.502;10.252;2022-07-06T14:08:24;101808.72;;;22.19;48.63
16120;BME280;12670;53.502;10.252;2022-07-06T14:11:28;101798.78;;;22.06;50.91
16120;BME280;12670;53.502;10.252;2022-07-06T14:14:31;101804.31;;;22.05;50.22
16120;BME280;12670;53.502;10.252;2022-07-06T14:17:33;101796.72;;;21.35;50.65
16120;BME280;12670;53.502;10.252;2022-07-06T14:20:36;101802.13;;;21.48;50.07
16120;BME280;12670;53.502;10.252;2022-07-06T14:23:39;101800.78;;;21.28;50.71
16120;BME280;12670;53.502;10.252;2022-07-06T14:26:43;101796.03;;;21.82;50.92
16120;BME280;12670;53.502;10.252;2022-07-06T14:29:46;101793.47;;;22.18;49.72
16120;BME280;12670;53.502;10.252;2022-07-06T14:32:48;101775.41;;;22.42;46.31
16120;BME280;12670;53.502;10.252;2022-07-06T14:35:52;101780.47;;;22.47;45.11
16120;BME280;12670;53.502;10.252;2022-07-06T14:38:54;101785.13;;;22.21;46.36
16120;BME280;12670;53.502;10.252;2022-07-06T14:41:58;101789.50;;;22.11;46.22
16120;BME280;12670;53.502;10.252;2022-07-06T14:45:01;101793.00;;;21.87;45.61
16120;BME280;12670;53.502;10.252;2022-07-06T14:48:05;101793.69;;;21.65;47.69
16120;BME280;12670;53.502;10.252;2022-07-06T14:51:08;101796.88;;;21.83;48.02
16120;BME280;12670;53.502;10.252;2022-07-06T14:54:10;101792.59;;;21.68;47.73
16120;BME280;12670;53.502;10.252;2022-07-06T14:57:14;101794.75;;;21.63;46.89
16120;BME280;12670;53.502;10.252;2022-07-06T15:00:17;101787.41;;;21.65;47.81
16120;BME280;12670;53.502;10.252;2022-07-06T15:03:20;101794.06;;;21.85;47.23
16120;BME280;12670;53.502;10.252;2022-07-06T15:06:22;101784.63;;;21.53;47.46
16120;BME280;12670;53.502;10.252;2022-07-06T15:09:45;101790.00;;;21.53;46.52
16120;BME280;12670;53.502;10.252;2022-07-06T15:12:49;101783.34;;;21.46;47.21
16120;BME280;12670;53.502;10.252;2022-07-06T15:15:51;101786.03;;;21.46;47.83
16120;BME280;12670;53.502;10.252;2022-07-06T15:18:58;101781.50;;;21.47;47.31
16120;BME280;12670;53.502;10.252;2022-07-06T15:22:00;101772.72;;;21.05;45.57
16120;BME280;12670;53.502;10.252;2022-07-06T15:25:04;101778.31;;;21.02;47.57
16120;BME280;12670;53.502;10.252;2022-07-06T15:28:08;101781.56;;;20.94;47.52
16120;BME280;12670;53.502;10.252;2022-07-06T15:31:11;101772.03;;;20.89;48.55
16120;BME280;12670;53.502;10.252;2022-07-06T15:34:19;101776.16;;;20.94;48.29
16120;BME280;12670;53.502;10.252;2022-07-06T15:37:22;101779.41;;;21.12;49.17
16120;BME280;12670;53.502;10.252;2022-07-06T15:40:24;101766.66;;;20.89;50.00
16120;BME280;12670;53.502;10.252;2022-07-06T15:43:30;101764.41;;;20.56;47.85
16120;BME280;12670;53.502;10.252;2022-07-06T15:46:33;101755.59;;;20.39;48.50
16120;BME280;12670;53.502;10.252;2022-07-06T15:49:36;101757.81;;;20.47;48.29